sensor_id;sensor_type;location;lat;lon;timestamp;pressure;altitude;pressure_sealevel;temperature;humidity
3780;BME280;1905;52.482;9.802;2022-12-24T00:01:05;99844.13;;;7.96;91.84
3780;BME280;1905;52.482;9.802;2022-12-24T00:03:35;99837.16;;;7.95;92.41
3780;BME280;1905;52.482;9.802;2022-12-24T00:06:03;99833.75;;;7.93;92.06
3780;BME280;1905;52.482;9.802;2022-12-24T00:08:31;99841.53;;;7.94;91.77
3780;BME280;1905;52.482;9.802;2022-12-24T00:10:58;99853.81;;;7.94;92.72
3780;BME280;1905;52.482;9.802;2022-12-24T00:13:26;99853.81;;;7.94;92.74
3780;BME280;1905;52.482;9.802;2022-12-24T00:15:53;99856.47;;;7.94;92.17
3780;BME280;1905;52.482;9.802;2022-12-24T00:18:22;99854.78;;;7.93;92.57
3780;BME280;1905;52.482;9.802;2022-12-24T00:20:50;99849.56;;;7.91;92.61
3780;BME280;1905;52.482;9.802;2022-12-24T00:23:18;99850.44;;;7.92;92.15
3780;BME280;1905;52.482;9.802;2022-12-24T00:25:47;99836.56;;;7.88;92.09
3780;BME280;1905;52.482;9.802;2022-12-24T00:28:15;99840.03;;;7.89;91.69
3780;BME280;1905;52.482;9.802;2022-12-24T00:30:43;99833.94;;;7.88;92.39
3780;BME280;1905;52.482;9.802;2022-12-24T00:33:11;99819.97;;;7.88;92.14
3780;BME280;1905;52.482;9.802;2022-12-24T00:35:40;99836.56;;;7.88;91.62
3780;BME280;1905;52.482;9.802;2022-12-24T00:38:08;99834.00;;;7.87;92.49
3780;BME280;1905;52.482;9.802;2022-12-24T00:40:35;99841.00;;;7.88;91.71
3780;BME280;1905;52.482;9.802;2022-12-24T00:43:03;99837.50;;;7.87;92.22
3780;BME280;1905;52.482;9.802;2022-12-24T00:45:30;99829.75;;;7.84;91.75
3780;BME280;1905;52.482;9.802;2022-12-24T00:47:58;99831.53;;;7.84;92.19
3780;BME280;1905;52.482;9.802;2022-12-24T00:50:25;99839.41;;;7.84;92.64
3780;BME280;1905;52.482;9.802;2022-12-24T00:52:54;99840.34;;;7.83;91.63
3780;BME280;1905;52.482;9.802;2022-12-24T00:55:21;99849.16;;;7.82;91.97
3780;BME280;1905;52.482;9.802;2022-12-24T00:57:49;99863.16;;;7.82;92.84
3780;BME280;1905;52.482;9.802;2022-12-24T01:00:17;99862.28;;;7.82;92.00
3780;BME280;1905;52.482;9.802;2022-12-24T01:02:44;99855.31;;;7.80;92.37
3780;BME280;1905;52.482;9.802;2022-12-24T01:05:12;99859.66;;;7.82;92.53
3780;BME280;1905;52.482;9.802;2022-12-24T01:07:41;99855.31;;;7.80;92.25
3780;BME280;1905;52.482;9.802;2022-12-24T01:10:12;99853.63;;;7.79;92.09
3780;BME280;1905;52.482;9.802;2022-12-24T01:12:41;99874.66;;;7.79;92.17
3780;BME280;1905;52.482;9.802;2022-12-24T01:15:09;99873.03;;;7.77;92.23
3780;BME280;1905;52.482;9.802;2022-12-24T01:17:37;99872.94;;;7.78;92.54
3780;BME280;1905;52.482;9.802;2022-12-24T01:20:15;99872.22;;;7.75;92.04
3780;BME280;1905;52.482;9.802;2022-12-24T01:22:43;99881.97;;;7.73;92.93
3780;BME280;1905;52.482;9.802;2022-12-24T01:25:12;99877.56;;;7.73;92.35
3780;BME280;1905;52.482;9.802;2022-12-24T01:27:40;99887.16;;;7.74;92.24
3780;BME280;1905;52.482;9.802;2022-12-24T01:30:10;99889.78;;;7.74;92.12
3780;BME280;1905;52.482;9.802;2022-12-24T01:32:40;99892.41;;;7.74;92.14
3780;BME280;1905;52.482;9.802;2022-12-24T01:35:08;99900.34;;;7.73;92.42
3780;BME280;1905;52.482;9.802;2022-12-24T01:37:36;99915.25;;;7.72;92.17
3780;BME280;1905;52.482;9.802;2022-12-24T01:40:06;99908.31;;;7.71;92.26
3780;BME280;1905;52.482;9.802;2022-12-24T01:42:53;99897.94;;;7.68;92.22
3780;BME280;1905;52.482;9.802;2022-12-24T01:45:44;99897.94;;;7.68;92.74
3780;BME280;1905;52.482;9.802;2022-12-24T01:48:20;99897.06;;;7.68;92.51
3780;BME280;1905;52.482;9.802;2022-12-24T01:50:51;99902.34;;;7.68;92.44
3780;BME280;1905;52.482;9.802;2022-12-24T01:53:20;99903.19;;;7.68;92.78
3780;BME280;1905;52.482;9.802;2022-12-24T01:55:48;99910.13;;;7.69;92.17
3780;BME280;1905;52.482;9.802;2022-12-24T01:58:19;99905.81;;;7.68;91.85
3780;BME280;1905;52.482;9.802;2022-12-24T02:00:47;99910.25;;;7.66;92.79
3780;BME280;1905;52.482;9.802;2022-12-24T02:03:15;99905.88;;;7.67;92.03
3780;BME280;1905;52.482;9.802;2022-12-24T02:05:46;99900.63;;;7.67;91.85
3780;BME280;1905;52.482;9.802;2022-12-24T02:08:15;99909.44;;;7.66;91.80
3780;BME280;1905;52.482;9.802;2022-12-24T02:10:43;99910.25;;;7.66;92.13
3780;BME280;1905;52.482;9.802;2022-12-24T02:13:12;99900.69;;;7.65;92.29
3780;BME280;1905;52.482;9.802;2022-12-24T02:15:56;99907.72;;;7.65;92.11
3780;BME280;1905;52.482;9.802;2022-12-24T02:18:33;99911.25;;;7.64;91.91
3780;BME280;1905;52.482;9.802;2022-12-24T02:21:22;99917.38;;;7.64;92.83
3780;BME280;1905;52.482;9.802;2022-12-24T02:27:03;99929.72;;;7.62;92.66
3780;BME280;1905;52.482;9.802;2022-12-24T02:30:00;99936.72;;;7.63;92.64
3780;BME280;1905;52.482;9.802;2022-12-24T02:32:35;99939.38;;;7.62;92.16
3780;BME280;1905;52.482;9.802;2022-12-24T02:35:10;99923.63;;;7.62;92.12
3780;BME280;1905;52.482;9.802;2022-12-24T02:37:41;99928.88;;;7.62;92.42
3780;BME280;1905;52.482;9.802;2022-12-24T02:40:13;99927.09;;;7.62;92.31
3780;BME280;1905;52.482;9.802;2022-12-24T02:42:47;99931.44;;;7.63;92.09
3780;BME280;1905;52.482;9.802;2022-12-24T02:45:21;99929.72;;;7.62;92.49
3780;BME280;1905;52.482;9.802;2022-12-24T02:47:49;99933.28;;;7.61;91.77
3780;BME280;1905;52.482;9.802;2022-12-24T02:50:18;99936.72;;;7.63;92.07
3780;BME280;1905;52.482;9.802;2022-12-24T02:52:46;99941.97;;;7.63;92.50
3780;BME280;1905;52.482;9.802;2022-12-24T02:55:17;99944.59;;;7.63;92.70
3780;BME280;1905;52.482;9.802;2022-12-24T02:58:03;99941.03;;;7.64;92.32
3780;BME280;1905;52.482;9.802;2022-12-24T03:00:42;99941.97;;;7.63;92.43
3780;BME280;1905;52.482;9.802;2022-12-24T03:03:27;99941.97;;;7.63;92.13
3780;BME280;1905;52.482;9.802;2022-12-24T03:06:06;99935.84;;;7.63;91.96
3780;BME280;1905;52.482;9.802;2022-12-24T03:08:44;99947.22;;;7.63;92.22
3780;BME280;1905;52.482;9.802;2022-12-24T03:11:15;99943.66;;;7.64;92.80
3780;BME280;1905;52.482;9.802;2022-12-24T03:13:44;99948.91;;;7.64;92.90
3780;BME280;1905;52.482;9.802;2022-12-24T03:16:20;99952.47;;;7.63;92.34
3780;BME280;1905;52.482;9.802;2022-12-24T03:18:51;99947.22;;;7.63;92.20
3780;BME280;1905;52.482;9.802;2022-12-24T03:21:23;99967.28;;;7.64;92.54
3780;BME280;1905;52.482;9.802;2022-12-24T03:23:53;99966.50;;;7.62;92.63
3780;BME280;1905;52.482;9.802;2022-12-24T03:26:20;99957.72;;;7.63;94.41
3780;BME280;1905;52.482;9.802;2022-12-24T03:28:49;99973.63;;;7.60;93.72
3780;BME280;1905;52.482;9.802;2022-12-24T03:31:18;99974.41;;;7.62;93.03
3780;BME280;1905;52.482;9.802;2022-12-24T03:33:47;99972.63;;;7.63;93.39
3780;BME280;1905;52.482;9.802;2022-12-24T03:36:15;99990.09;;;7.64;93.29
3780;BME280;1905;52.482;9.802;2022-12-24T03:38:42;99981.28;;;7.65;92.73
3780;BME280;1905;52.482;9.802;2022-12-24T03:41:10;99983.84;;;7.66;92.78
3780;BME280;1905;52.482;9.802;2022-12-24T03:43:37;99987.41;;;7.65;92.45
3780;BME280;1905;52.482;9.802;2022-12-24T03:46:06;99995.22;;;7.67;93.38
3780;BME280;1905;52.482;9.802;2022-12-24T03:48:36;99997.78;;;7.68;92.55
3780;BME280;1905;52.482;9.802;2022-12-24T03:51:03;99999.47;;;7.69;93.77
3780;BME280;1905;52.482;9.802;2022-12-24T03:53:31;100001.19;;;7.70;93.29
3780;BME280;1905;52.482;9.802;2022-12-24T03:55:58;100000.28;;;7.71;92.95
3780;BME280;1905;52.482;9.802;2022-12-24T03:58:26;100002.91;;;7.71;93.33
3780;BME280;1905;52.482;9.802;2022-12-24T04:00:53;100005.56;;;7.71;93.93
3780;BME280;1905;52.482;9.802;2022-12-24T04:03:21;100007.22;;;7.72;93.08
3780;BME280;1905;52.482;9.802;2022-12-24T04:06:00;100017.69;;;7.74;93.54
3780;BME280;1905;52.482;9.802;2022-12-24T04:08:27;100020.34;;;7.74;92.97
3780;BME280;1905;52.482;9.802;2022-12-24T04:10:55;100025.50;;;7.75;92.64
3780;BME280;1905;52.482;9.802;2022-12-24T04:13:23;100026.28;;;7.77;92.27
3780;BME280;1905;52.482;9.802;2022-12-24T04:15:56;100039.44;;;7.77;92.80
3780;BME280;1905;52.482;9.802;2022-12-24T04:18:24;100037.47;;;7.83;94.27
3780;BME280;1905;52.482;9.802;2022-12-24T04:20:52;100050.75;;;7.79;94.64
3780;BME280;1905;52.482;9.802;2022-12-24T04:23:21;100053.38;;;7.79;95.64
3780;BME280;1905;52.482;9.802;2022-12-24T04:25:49;100049.03;;;7.78;96.04
3780;BME280;1905;52.482;9.802;2022-12-24T04:28:17;100048.13;;;7.79;96.48
3780;BME280;1905;52.482;9.802;2022-12-24T04:30:44;100056.78;;;7.82;96.40
3780;BME280;1905;52.482;9.802;2022-12-24T04:33:12;100060.19;;;7.84;97.51
3780;BME280;1905;52.482;9.802;2022-12-24T04:35:39;100062.63;;;7.88;97.40
3780;BME280;1905;52.482;9.802;2022-12-24T04:38:08;100063.47;;;7.89;96.83
3780;BME280;1905;52.482;9.802;2022-12-24T04:40:37;100066.84;;;7.92;96.47
3780;BME280;1905;52.482;9.802;2022-12-24T04:43:05;100071.91;;;7.97;96.68
3780;BME280;1905;52.482;9.802;2022-12-24T04:45:32;100071.78;;;8.00;96.84
3780;BME280;1905;52.482;9.802;2022-12-24T04:48:00;100077.69;;;8.05;97.48
3780;BME280;1905;52.482;9.802;2022-12-24T04:50:27;100074.00;;;8.09;97.15
3780;BME280;1905;52.482;9.802;2022-12-24T04:52:55;100081.81;;;8.10;97.84
3780;BME280;1905;52.482;9.802;2022-12-24T04:55:22;100083.47;;;8.13;97.31
3780;BME280;1905;52.482;9.802;2022-12-24T04:57:51;100082.56;;;8.14;97.75
3780;BME280;1905;52.482;9.802;2022-12-24T05:00:19;100097.28;;;8.18;97.61
3780;BME280;1905;52.482;9.802;2022-12-24T05:02:46;100080.56;;;8.19;96.86
3780;BME280;1905;52.482;9.802;2022-12-24T05:05:14;100085.56;;;8.25;98.39
3780;BME280;1905;52.482;9.802;2022-12-24T05:07:42;100077.59;;;8.28;98.63
3780;BME280;1905;52.482;9.802;2022-12-24T05:10:10;100078.31;;;8.31;97.63
3780;BME280;1905;52.482;9.802;2022-12-24T05:12:37;100075.47;;;8.36;98.54
3780;BME280;1905;52.482;9.802;2022-12-24T05:15:07;100090.13;;;8.42;98.96
3780;BME280;1905;52.482;9.802;2022-12-24T05:17:35;100101.66;;;8.39;98.45
3780;BME280;1905;52.482;9.802;2022-12-24T05:20:03;100088.06;;;8.48;99.01
3780;BME280;1905;52.482;9.802;2022-12-24T05:22:30;100102.28;;;8.44;98.55
3780;BME280;1905;52.482;9.802;2022-12-24T05:25:16;100099.66;;;8.44;98.91
3780;BME280;1905;52.482;9.802;2022-12-24T05:28:01;100112.56;;;8.50;97.38
3780;BME280;1905;52.482;9.802;2022-12-24T05:30:30;100101.72;;;8.56;98.22
3780;BME280;1905;52.482;9.802;2022-12-24T05:32:57;100108.72;;;8.57;98.35
3780;BME280;1905;52.482;9.802;2022-12-24T05:35:25;100113.84;;;8.60;97.84
3780;BME280;1905;52.482;9.802;2022-12-24T05:37:56;100117.19;;;8.64;97.87
3780;BME280;1905;52.482;9.802;2022-12-24T05:40:23;100123.47;;;8.61;98.14
3780;BME280;1905;52.482;9.802;2022-12-24T05:42:51;100134.75;;;8.63;98.62
3780;BME280;1905;52.482;9.802;2022-12-24T05:45:19;100142.53;;;8.66;98.18
3780;BME280;1905;52.482;9.802;2022-12-24T05:47:48;100148.56;;;8.68;97.30
3780;BME280;1905;52.482;9.802;2022-12-24T05:50:15;100148.56;;;8.68;97.92
3780;BME280;1905;52.482;9.802;2022-12-24T05:52:43;100153.69;;;8.71;97.88
3780;BME280;1905;52.482;9.802;2022-12-24T05:55:11;100147.34;;;8.75;98.14
3780;BME280;1905;52.482;9.802;2022-12-24T05:57:39;100145.53;;;8.77;98.59
3780;BME280;1905;52.482;9.802;2022-12-24T06:00:08;100161.97;;;8.82;98.90
3780;BME280;1905;52.482;9.802;2022-12-24T06:02:37;100156.97;;;8.76;99.01
3780;BME280;1905;52.482;9.802;2022-12-24T06:05:07;100161.19;;;8.80;97.81
3780;BME280;1905;52.482;9.802;2022-12-24T06:07:35;100166.31;;;8.83;98.13
3780;BME280;1905;52.482;9.802;2022-12-24T06:10:03;100177.69;;;8.84;97.11
3780;BME280;1905;52.482;9.802;2022-12-24T06:12:31;100177.63;;;8.85;98.40
3780;BME280;1905;52.482;9.802;2022-12-24T06:14:58;100177.63;;;8.85;98.28
3780;BME280;1905;52.482;9.802;2022-12-24T06:17:26;100187.22;;;8.86;97.98
3780;BME280;1905;52.482;9.802;2022-12-24T06:19:53;100187.09;;;8.89;98.21
3780;BME280;1905;52.482;9.802;2022-12-24T06:22:22;100185.09;;;8.94;98.70
3780;BME280;1905;52.482;9.802;2022-12-24T06:24:50;100181.69;;;8.92;97.41
3780;BME280;1905;52.482;9.802;2022-12-24T06:27:17;100183.41;;;8.93;97.86
3780;BME280;1905;52.482;9.802;2022-12-24T06:29:45;100190.38;;;8.94;97.73
3780;BME280;1905;52.482;9.802;2022-12-24T06:32:13;100200.00;;;8.95;98.54
3780;BME280;1905;52.482;9.802;2022-12-24T06:34:40;100200.78;;;8.97;99.18
3780;BME280;1905;52.482;9.802;2022-12-24T06:37:08;100197.09;;;9.02;97.97
3780;BME280;1905;52.482;9.802;2022-12-24T06:39:45;100198.09;;;8.99;98.97
3780;BME280;1905;52.482;9.802;2022-12-24T06:42:13;100211.03;;;9.04;98.34
3780;BME280;1905;52.482;9.802;2022-12-24T06:44:40;100213.81;;;9.01;98.21
3780;BME280;1905;52.482;9.802;2022-12-24T06:47:08;100208.13;;;9.10;98.62
3780;BME280;1905;52.482;9.802;2022-12-24T06:49:35;100221.44;;;9.07;98.02
3780;BME280;1905;52.482;9.802;2022-12-24T06:52:03;100221.44;;;9.07;98.41
3780;BME280;1905;52.482;9.802;2022-12-24T06:54:31;100226.72;;;9.07;97.64
3780;BME280;1905;52.482;9.802;2022-12-24T06:56:59;100224.84;;;9.09;97.98
3780;BME280;1905;52.482;9.802;2022-12-24T06:59:27;100221.44;;;9.07;97.75
3780;BME280;1905;52.482;9.802;2022-12-24T07:01:55;100229.41;;;9.05;98.10
3780;BME280;1905;52.482;9.802;2022-12-24T07:04:22;100241.66;;;9.06;97.27
3780;BME280;1905;52.482;9.802;2022-12-24T07:06:50;100244.22;;;9.08;98.58
3780;BME280;1905;52.482;9.802;2022-12-24T07:09:18;100259.09;;;9.09;97.18
3780;BME280;1905;52.482;9.802;2022-12-24T07:11:45;100261.59;;;9.12;97.66
3780;BME280;1905;52.482;9.802;2022-12-24T07:14:14;100253.91;;;9.07;97.10
3780;BME280;1905;52.482;9.802;2022-12-24T07:16:42;100265.13;;;9.11;97.18
3780;BME280;1905;52.482;9.802;2022-12-24T07:19:09;100278.31;;;9.11;96.15
3780;BME280;1905;52.482;9.802;2022-12-24T07:21:37;100279.19;;;9.11;97.14
3780;BME280;1905;52.482;9.802;2022-12-24T07:24:05;100279.25;;;9.10;97.31
3780;BME280;1905;52.482;9.802;2022-12-24T07:26:33;100277.41;;;9.12;96.05
3780;BME280;1905;52.482;9.802;2022-12-24T07:29:00;100280.94;;;9.11;96.54
3780;BME280;1905;52.482;9.802;2022-12-24T07:31:29;100285.44;;;9.09;96.35
3780;BME280;1905;52.482;9.802;2022-12-24T07:33:57;100287.28;;;9.07;95.81
3780;BME280;1905;52.482;9.802;2022-12-24T07:36:24;100287.41;;;9.04;96.17
3780;BME280;1905;52.482;9.802;2022-12-24T07:38:53;100290.06;;;9.04;95.97
3780;BME280;1905;52.482;9.802;2022-12-24T07:41:22;100288.34;;;9.03;96.62
3780;BME280;1905;52.482;9.802;2022-12-24T07:43:49;100301.44;;;9.04;96.15
3780;BME280;1905;52.482;9.802;2022-12-24T07:46:17;100291.91;;;9.02;96.07
3780;BME280;1905;52.482;9.802;2022-12-24T07:48:46;100311.25;;;9.01;96.03
3780;BME280;1905;52.482;9.802;2022-12-24T07:51:13;100309.53;;;8.99;96.11
3780;BME280;1905;52.482;9.802;2022-12-24T07:53:41;100314.66;;;9.03;95.93
3780;BME280;1905;52.482;9.802;2022-12-24T07:56:13;100313.09;;;8.98;96.71
3780;BME280;1905;52.482;9.802;2022-12-24T07:58:41;100319.25;;;8.99;95.94
3780;BME280;1905;52.482;9.802;2022-12-24T08:01:10;100325.19;;;9.03;95.58
3780;BME280;1905;52.482;9.802;2022-12-24T08:03:38;100339.44;;;8.98;95.96
3780;BME280;1905;52.482;9.802;2022-12-24T08:06:07;100339.56;;;8.95;96.38
3780;BME280;1905;52.482;9.802;2022-12-24T08:08:35;100343.94;;;8.96;95.34
3780;BME280;1905;52.482;9.802;2022-12-24T08:11:05;100338.59;;;8.98;95.73
3780;BME280;1905;52.482;9.802;2022-12-24T08:13:33;100347.47;;;8.95;95.30
3780;BME280;1905;52.482;9.802;2022-12-24T08:16:01;100345.81;;;8.93;95.44
3780;BME280;1905;52.482;9.802;2022-12-24T08:18:29;100342.28;;;8.94;95.68
3780;BME280;1905;52.482;9.802;2022-12-24T08:20:57;100355.50;;;8.92;95.58
3780;BME280;1905;52.482;9.802;2022-12-24T08:23:26;100351.09;;;8.93;94.90
3780;BME280;1905;52.482;9.802;2022-12-24T08:25:53;100358.22;;;8.91;95.31
3780;BME280;1905;52.482;9.802;2022-12-24T08:28:21;100361.66;;;8.91;95.00
3780;BME280;1905;52.482;9.802;2022-12-24T08:30:49;100365.16;;;8.92;95.45
3780;BME280;1905;52.482;9.802;2022-12-24T08:33:17;100375.00;;;8.88;95.62
3780;BME280;1905;52.482;9.802;2022-12-24T08:35:48;100368.75;;;8.91;96.04
3780;BME280;1905;52.482;9.802;2022-12-24T08:38:16;100375.00;;;8.88;96.18
3780;BME280;1905;52.482;9.802;2022-12-24T08:40:45;100383.81;;;8.87;95.90
3780;BME280;1905;52.482;9.802;2022-12-24T08:43:15;100383.81;;;8.87;95.20
3780;BME280;1905;52.482;9.802;2022-12-24T08:45:44;100396.06;;;8.88;96.00
3780;BME280;1905;52.482;9.802;2022-12-24T08:48:11;100403.97;;;8.88;95.85
3780;BME280;1905;52.482;9.802;2022-12-24T08:50:40;100417.25;;;8.85;95.66
3780;BME280;1905;52.482;9.802;2022-12-24T08:53:08;100424.22;;;8.86;96.24
3780;BME280;1905;52.482;9.802;2022-12-24T08:55:36;100426.06;;;8.84;96.17
3780;BME280;1905;52.482;9.802;2022-12-24T08:58:06;100429.59;;;8.83;95.38
3780;BME280;1905;52.482;9.802;2022-12-24T09:00:33;100424.31;;;8.83;95.39
3780;BME280;1905;52.482;9.802;2022-12-24T09:03:01;100429.59;;;8.83;95.97
3780;BME280;1905;52.482;9.802;2022-12-24T09:05:28;100421.66;;;8.85;95.34
3780;BME280;1905;52.482;9.802;2022-12-24T09:07:56;100431.41;;;8.83;95.88
3780;BME280;1905;52.482;9.802;2022-12-24T09:10:24;100434.75;;;8.86;95.53
3780;BME280;1905;52.482;9.802;2022-12-24T09:12:51;100430.56;;;8.81;95.57
3780;BME280;1905;52.482;9.802;2022-12-24T09:15:20;100437.66;;;8.80;96.38
3780;BME280;1905;52.482;9.802;2022-12-24T09:17:48;100444.59;;;8.81;95.93
3780;BME280;1905;52.482;9.802;2022-12-24T09:20:15;100453.28;;;8.83;95.59
3780;BME280;1905;52.482;9.802;2022-12-24T09:22:43;100446.25;;;8.84;96.90
3780;BME280;1905;52.482;9.802;2022-12-24T09:25:10;100455.94;;;8.83;96.86
3780;BME280;1905;52.482;9.802;2022-12-24T09:27:38;100475.28;;;8.82;96.74
3780;BME280;1905;52.482;9.802;2022-12-24T09:30:06;100475.19;;;8.85;96.50
3780;BME280;1905;52.482;9.802;2022-12-24T09:32:35;100479.50;;;8.86;96.99
3780;BME280;1905;52.482;9.802;2022-12-24T09:35:04;100490.66;;;8.93;97.17
3780;BME280;1905;52.482;9.802;2022-12-24T09:37:32;100487.16;;;8.92;97.11
3780;BME280;1905;52.482;9.802;2022-12-24T09:39:59;100492.44;;;8.92;97.28
3780;BME280;1905;52.482;9.802;2022-12-24T09:42:34;100499.44;;;8.93;97.29
3780;BME280;1905;52.482;9.802;2022-12-24T09:45:15;100493.88;;;8.99;97.12
3780;BME280;1905;52.482;9.802;2022-12-24T09:47:48;100495.63;;;9.01;97.52
3780;BME280;1905;52.482;9.802;2022-12-24T09:50:25;100512.09;;;9.06;97.21
3780;BME280;1905;52.482;9.802;2022-12-24T09:52:56;100516.34;;;9.10;97.81
3780;BME280;1905;52.482;9.802;2022-12-24T09:55:27;100518.03;;;9.11;97.71
3780;BME280;1905;52.482;9.802;2022-12-24T09:57:58;100519.63;;;9.15;97.60
3780;BME280;1905;52.482;9.802;2022-12-24T10:00:29;100522.16;;;9.18;98.32
3780;BME280;1905;52.482;9.802;2022-12-24T10:02:58;100515.94;;;9.19;98.23
3780;BME280;1905;52.482;9.802;2022-12-24T10:05:35;100528.19;;;9.20;98.27
3780;BME280;1905;52.482;9.802;2022-12-24T10:08:13;100520.97;;;9.25;97.46
3780;BME280;1905;52.482;9.802;2022-12-24T10:10:50;100524.25;;;9.30;96.63
3780;BME280;1905;52.482;9.802;2022-12-24T10:13:28;100526.78;;;9.33;98.62
3780;BME280;1905;52.482;9.802;2022-12-24T10:16:05;100529.41;;;9.33;98.30
3780;BME280;1905;52.482;9.802;2022-12-24T10:18:44;100531.06;;;9.35;98.01
3780;BME280;1905;52.482;9.802;2022-12-24T10:21:23;100531.72;;;9.40;97.24
3780;BME280;1905;52.482;9.802;2022-12-24T10:23:58;100527.31;;;9.41;96.65
3780;BME280;1905;52.482;9.802;2022-12-24T10:26:30;100540.44;;;9.42;96.93
3780;BME280;1905;52.482;9.802;2022-12-24T10:29:10;100537.75;;;9.44;97.57
3780;BME280;1905;52.482;9.802;2022-12-24T10:31:44;100530.50;;;9.49;97.71
3780;BME280;1905;52.482;9.802;2022-12-24T10:34:21;100539.34;;;9.48;97.62
3780;BME280;1905;52.482;9.802;2022-12-24T10:36:49;100542.31;;;9.61;96.54
3780;BME280;1905;52.482;9.802;2022-12-24T10:39:19;100536.31;;;9.57;97.23
3780;BME280;1905;52.482;9.802;2022-12-24T10:41:49;100535.41;;;9.58;96.97
3780;BME280;1905;52.482;9.802;2022-12-24T10:44:19;100537.94;;;9.59;97.25
3780;BME280;1905;52.482;9.802;2022-12-24T10:46:47;100546.69;;;9.62;96.95
3780;BME280;1905;52.482;9.802;2022-12-24T10:49:18;100547.47;;;9.64;96.54
3780;BME280;1905;52.482;9.802;2022-12-24T10:51:50;100547.25;;;9.68;97.45
3780;BME280;1905;52.482;9.802;2022-12-24T10:54:21;100551.53;;;9.71;96.31
3780;BME280;1905;52.482;9.802;2022-12-24T10:56:55;100548.06;;;9.70;96.55
3780;BME280;1905;52.482;9.802;2022-12-24T10:59:26;100554.78;;;9.77;96.76
3780;BME280;1905;52.482;9.802;2022-12-24T11:01:54;100551.09;;;9.81;97.48
3780;BME280;1905;52.482;9.802;2022-12-24T11:04:25;100563.28;;;9.84;96.85
3780;BME280;1905;52.482;9.802;2022-12-24T11:06:55;100558.75;;;9.87;97.13
3780;BME280;1905;52.482;9.802;2022-12-24T11:09:25;100563.75;;;9.93;97.52
3780;BME280;1905;52.482;9.802;2022-12-24T11:11:54;100572.47;;;9.95;97.45
3780;BME280;1905;52.482;9.802;2022-12-24T11:14:22;100573.13;;;10.00;97.16
3780;BME280;1905;52.482;9.802;2022-12-24T11:16:53;100569.56;;;10.01;96.67
3780;BME280;1905;52.482;9.802;2022-12-24T11:19:29;100581.84;;;10.02;97.11
3780;BME280;1905;52.482;9.802;2022-12-24T11:22:00;100580.78;;;10.06;96.29
3780;BME280;1905;52.482;9.802;2022-12-24T11:24:30;100585.13;;;10.07;97.02
3780;BME280;1905;52.482;9.802;2022-12-24T11:27:21;100594.53;;;10.14;96.85
3780;BME280;1905;52.482;9.802;2022-12-24T11:29:50;100594.63;;;10.11;96.95
3780;BME280;1905;52.482;9.802;2022-12-24T11:32:20;100583.09;;;10.14;96.86
3780;BME280;1905;52.482;9.802;2022-12-24T11:34:49;100578.56;;;10.18;95.90
3780;BME280;1905;52.482;9.802;2022-12-24T11:37:19;100589.13;;;10.18;96.24
3780;BME280;1905;52.482;9.802;2022-12-24T11:39:49;100583.72;;;10.21;95.96
3780;BME280;1905;52.482;9.802;2022-12-24T11:42:26;100585.13;;;10.28;95.36
3780;BME280;1905;52.482;9.802;2022-12-24T11:44:56;100583.31;;;10.30;95.71
3780;BME280;1905;52.482;9.802;2022-12-24T11:47:32;100579.72;;;10.31;95.69
3780;BME280;1905;52.482;9.802;2022-12-24T11:50:26;100577.91;;;10.33;95.97
3780;BME280;1905;52.482;9.802;2022-12-24T11:52:59;100575.31;;;10.31;95.69
3780;BME280;1905;52.482;9.802;2022-12-24T11:55:39;100577.91;;;10.33;95.66
3780;BME280;1905;52.482;9.802;2022-12-24T11:58:19;100572.47;;;10.36;95.70
3780;BME280;1905;52.482;9.802;2022-12-24T12:00:50;100578.81;;;10.32;95.61
3780;BME280;1905;52.482;9.802;2022-12-24T12:03:28;100577.03;;;10.32;95.61
3780;BME280;1905;52.482;9.802;2022-12-24T12:06:00;100578.69;;;10.35;95.61
3780;BME280;1905;52.482;9.802;2022-12-24T12:08:30;100581.19;;;10.38;95.52
3780;BME280;1905;52.482;9.802;2022-12-24T12:10:59;100588.28;;;10.36;94.99
3780;BME280;1905;52.482;9.802;2022-12-24T12:13:31;100584.75;;;10.37;95.87
3780;BME280;1905;52.482;9.802;2022-12-24T12:16:09;100587.38;;;10.37;95.62
3780;BME280;1905;52.482;9.802;2022-12-24T12:18:45;100588.28;;;10.36;95.62
3780;BME280;1905;52.482;9.802;2022-12-24T12:21:16;100593.44;;;10.39;95.38
3780;BME280;1905;52.482;9.802;2022-12-24T12:23:48;100593.44;;;10.39;95.53
3780;BME280;1905;52.482;9.802;2022-12-24T12:26:20;100595.31;;;10.37;95.37
3780;BME280;1905;52.482;9.802;2022-12-24T12:28:53;100600.59;;;10.37;95.85
3780;BME280;1905;52.482;9.802;2022-12-24T12:31:25;100601.38;;;10.39;96.03
3780;BME280;1905;52.482;9.802;2022-12-24T12:33:56;100609.16;;;10.42;95.58
3780;BME280;1905;52.482;9.802;2022-12-24T12:36:30;100607.47;;;10.41;95.17
3780;BME280;1905;52.482;9.802;2022-12-24T12:38:58;100613.56;;;10.41;95.76
3780;BME280;1905;52.482;9.802;2022-12-24T12:41:42;100623.44;;;10.38;95.09
3780;BME280;1905;52.482;9.802;2022-12-24T12:44:27;100619.06;;;10.37;95.23
3780;BME280;1905;52.482;9.802;2022-12-24T12:47:30;100623.34;;;10.39;95.75
3780;BME280;1905;52.482;9.802;2022-12-24T12:50:06;100627.72;;;10.40;95.30
3780;BME280;1905;52.482;9.802;2022-12-24T12:52:48;100620.66;;;10.41;94.95
3780;BME280;1905;52.482;9.802;2022-12-24T12:55:25;100627.75;;;10.39;94.59
3780;BME280;1905;52.482;9.802;2022-12-24T12:57:59;100624.34;;;10.37;95.38
3780;BME280;1905;52.482;9.802;2022-12-24T13:00:28;100621.63;;;10.38;94.66
3780;BME280;1905;52.482;9.802;2022-12-24T13:03:17;100625.25;;;10.36;94.72
3780;BME280;1905;52.482;9.802;2022-12-24T13:06:06;100628.72;;;10.38;94.91
3780;BME280;1905;52.482;9.802;2022-12-24T13:08:58;100627.97;;;10.34;94.80
3780;BME280;1905;52.482;9.802;2022-12-24T13:11:46;100628.31;;;10.27;95.00
3780;BME280;1905;52.482;9.802;2022-12-24T13:14:30;100632.66;;;10.28;95.36
3780;BME280;1905;52.482;9.802;2022-12-24T13:17:30;100637.94;;;10.28;94.93
3780;BME280;1905;52.482;9.802;2022-12-24T13:20:12;100639.56;;;10.30;94.84
3780;BME280;1905;52.482;9.802;2022-12-24T13:22:47;100637.00;;;10.29;94.47
3780;BME280;1905;52.482;9.802;2022-12-24T13:25:22;100639.66;;;10.29;95.11
3780;BME280;1905;52.482;9.802;2022-12-24T13:27:52;100649.44;;;10.27;95.14
3780;BME280;1905;52.482;9.802;2022-12-24T13:30:33;100654.06;;;10.22;95.78
3780;BME280;1905;52.482;9.802;2022-12-24T13:33:01;100660.91;;;10.26;95.36
3780;BME280;1905;52.482;9.802;2022-12-24T13:35:34;100655.03;;;10.19;95.48
3780;BME280;1905;52.482;9.802;2022-12-24T13:44:27;100678.06;;;10.15;95.88
3780;BME280;1905;52.482;9.802;2022-12-24T13:47:18;100671.13;;;10.11;95.64
3780;BME280;1905;52.482;9.802;2022-12-24T13:50:12;100663.22;;;10.11;96.03
3780;BME280;1905;52.482;9.802;2022-12-24T13:52:49;100678.28;;;10.09;95.19